sensor_id;sensor_type;location;lat;lon;timestamp;pressure;altitude;pressure_sealevel;temperature;humidity
41264;BME280;26998;48.714;9.414;2022-09-27T00:00:27;97046.81;;;9.79;100.00
41264;BME280;26998;48.714;9.414;2022-09-27T00:02:53;97047.13;;;9.83;100.00
41264;BME280;26998;48.714;9.414;2022-09-27T00:05:20;97043.06;;;9.80;100.00
41264;BME280;26998;48.714;9.414;2022-09-27T00:07:46;97037.50;;;9.82;100.00
41264;BME280;26998;48.714;9.414;2022-09-27T00:10:13;97038.94;;;9.73;100.00
41264;BME280;26998;48.714;9.414;2022-09-27T00:12:39;97043.09;;;9.68;100.00
41264;BME280;26998;48.714;9.414;2022-09-27T00:15:07;97035.69;;;9.70;100.00
41264;BME280;26998;48.714;9.414;2022-09-27T00:17:34;97040.81;;;9.60;100.00
41264;BME280;26998;48.714;9.414;2022-09-27T00:20:02;97042.44;;;9.61;100.00
41264;BME280;26998;48.714;9.414;2022-09-27T00:22:29;97030.97;;;9.61;100.00
41264;BME280;26998;48.714;9.414;2022-09-27T00:24:55;97038.16;;;9.60;100.00
41264;BME280;26998;48.714;9.414;2022-09-27T00:27:22;97024.56;;;9.62;100.00
41264;BME280;26998;48.714;9.414;2022-09-27T00:29:48;97027.00;;;9.63;100.00
41264;BME280;26998;48.714;9.414;2022-09-27T00:32:14;97028.75;;;9.69;100.00
41264;BME280;26998;48.714;9.414;2022-09-27T00:34:41;97030.25;;;9.65;100.00
41264;BME280;26998;48.714;9.414;2022-09-27T00:37:08;97013.44;;;9.65;100.00
41264;BME280;26998;48.714;9.414;2022-09-27T00:39:34;97017.97;;;9.64;100.00
41264;BME280;26998;48.714;9.414;2022-09-27T00:42:01;97016.69;;;9.67;100.00
41264;BME280;26998;48.714;9.414;2022-09-27T00:47:05;97012.63;;;9.64;100.00
41264;BME280;26998;48.714;9.414;2022-09-27T00:49:38;97012.28;;;9.61;100.00
41264;BME280;26998;48.714;9.414;2022-09-27T00:52:32;97002.75;;;9.65;100.00
41264;BME280;26998;48.714;9.414;2022-09-27T00:55:06;97009.03;;;9.59;100.00
41264;BME280;26998;48.714;9.414;2022-09-27T00:57:35;96998.72;;;9.62;100.00
41264;BME280;26998;48.714;9.414;2022-09-27T01:00:08;96993.84;;;9.59;100.00
41264;BME280;26998;48.714;9.414;2022-09-27T01:02:36;96990.16;;;9.60;100.00
41264;BME280;26998;48.714;9.414;2022-09-27T01:05:05;96991.06;;;9.66;100.00
41264;BME280;26998;48.714;9.414;2022-09-27T01:07:33;96995.22;;;9.62;100.00
41264;BME280;26998;48.714;9.414;2022-09-27T01:10:00;96991.19;;;9.59;100.00
41264;BME280;26998;48.714;9.414;2022-09-27T01:12:40;96996.16;;;9.67;100.00
41264;BME280;26998;48.714;9.414;2022-09-27T01:15:25;96997.44;;;9.65;100.00
41264;BME280;26998;48.714;9.414;2022-09-27T01:18:04;96999.19;;;9.59;100.00
41264;BME280;26998;48.714;9.414;2022-09-27T01:23:44;96986.44;;;9.61;100.00
41264;BME280;26998;48.714;9.414;2022-09-27T01:31:55;96979.47;;;9.60;100.00
41264;BME280;26998;48.714;9.414;2022-09-27T01:40:11;96988.47;;;9.71;100.00
41264;BME280;26998;48.714;9.414;2022-09-27T01:45:41;96980.94;;;9.68;100.00
41264;BME280;26998;48.714;9.414;2022-09-27T01:48:14;96977.00;;;9.70;100.00
41264;BME280;26998;48.714;9.414;2022-09-27T01:50:49;96974.66;;;9.74;100.00
41264;BME280;26998;48.714;9.414;2022-09-27T01:53:30;96977.25;;;9.69;100.00
41264;BME280;26998;48.714;9.414;2022-09-27T01:56:01;96977.66;;;9.78;100.00
41264;BME280;26998;48.714;9.414;2022-09-27T01:58:42;96981.16;;;9.78;100.00
41264;BME280;26998;48.714;9.414;2022-09-27T02:01:12;96970.22;;;9.80;100.00
41264;BME280;26998;48.714;9.414;2022-09-27T02:03:43;96970.72;;;9.77;100.00
41264;BME280;26998;48.714;9.414;2022-09-27T02:06:15;96972.09;;;9.79;100.00
41264;BME280;26998;48.714;9.414;2022-09-27T02:08:57;96975.09;;;9.83;100.00
41264;BME280;26998;48.714;9.414;2022-09-27T02:11:25;96970.34;;;9.85;100.00
41264;BME280;26998;48.714;9.414;2022-09-27T02:13:59;96975.09;;;9.83;100.00
41264;BME280;26998;48.714;9.414;2022-09-27T02:17:03;96970.41;;;9.90;100.00
41264;BME280;26998;48.714;9.414;2022-09-27T02:22:38;96972.09;;;9.79;100.00
41264;BME280;26998;48.714;9.414;2022-09-27T02:25:56;96981.72;;;9.80;100.00
41264;BME280;26998;48.714;9.414;2022-09-27T02:28:38;96986.03;;;9.81;100.00
41264;BME280;26998;48.714;9.414;2022-09-27T02:31:06;96995.16;;;9.85;100.00
41264;BME280;26998;48.714;9.414;2022-09-27T02:33:46;96996.53;;;9.88;100.00
41264;BME280;26998;48.714;9.414;2022-09-27T02:36:14;96995.72;;;9.87;100.00
41264;BME280;26998;48.714;9.414;2022-09-27T02:38:41;97000.72;;;9.84;100.00
41264;BME280;26998;48.714;9.414;2022-09-27T02:41:15;97003.84;;;9.81;100.00
41264;BME280;26998;48.714;9.414;2022-09-27T02:43:44;96994.72;;;9.77;100.00
41264;BME280;26998;48.714;9.414;2022-09-27T02:49:01;97007.53;;;9.63;100.00
41264;BME280;26998;48.714;9.414;2022-09-27T02:51:40;97008.91;;;9.65;100.00
41264;BME280;26998;48.714;9.414;2022-09-27T02:54:49;97010.28;;;9.68;100.00
41264;BME280;26998;48.714;9.414;2022-09-27T02:57:47;97005.69;;;9.63;100.00
41264;BME280;26998;48.714;9.414;2022-09-27T03:00:24;97018.44;;;9.61;100.00
41264;BME280;26998;48.714;9.414;2022-09-27T03:03:04;97013.91;;;9.62;100.00
41264;BME280;26998;48.714;9.414;2022-09-27T03:05:41;97014.81;;;9.67;100.00
41264;BME280;26998;48.714;9.414;2022-09-27T03:08:09;97014.81;;;9.67;100.00
41264;BME280;26998;48.714;9.414;2022-09-27T03:10:37;97023.28;;;9.64;100.00
41264;BME280;26998;48.714;9.414;2022-09-27T03:13:03;97027.81;;;9.64;100.00
41264;BME280;26998;48.714;9.414;2022-09-27T03:15:30;97037.34;;;9.60;100.00
41264;BME280;26998;48.714;9.414;2022-09-27T03:17:56;97046.16;;;9.60;100.00
41264;BME280;26998;48.714;9.414;2022-09-27T03:20:23;97044.44;;;9.54;100.00
41264;BME280;26998;48.714;9.414;2022-09-27T03:22:49;97044.53;;;9.59;100.00
41264;BME280;26998;48.714;9.414;2022-09-27T03:25:16;97041.78;;;9.54;100.00
41264;BME280;26998;48.714;9.414;2022-09-27T03:27:43;97042.31;;;9.56;100.00
41264;BME280;26998;48.714;9.414;2022-09-27T03:30:11;97049.50;;;9.56;100.00
41264;BME280;26998;48.714;9.414;2022-09-27T03:32:41;97048.59;;;9.50;100.00
41264;BME280;26998;48.714;9.414;2022-09-27T03:35:10;97048.59;;;9.50;100.00
41264;BME280;26998;48.714;9.414;2022-09-27T03:37:37;97054.75;;;9.51;100.00
41264;BME280;26998;48.714;9.414;2022-09-27T03:40:04;97052.09;;;9.51;100.00
41264;BME280;26998;48.714;9.414;2022-09-27T03:42:30;97051.03;;;9.52;100.00
41264;BME280;26998;48.714;9.414;2022-09-27T03:44:57;97056.03;;;9.48;100.00
41264;BME280;26998;48.714;9.414;2022-09-27T03:47:23;97057.56;;;9.44;100.00
41264;BME280;26998;48.714;9.414;2022-09-27T03:49:50;97051.06;;;9.40;100.00
41264;BME280;26998;48.714;9.414;2022-09-27T03:52:16;97057.78;;;9.42;100.00
41264;BME280;26998;48.714;9.414;2022-09-27T03:54:43;97047.38;;;9.41;100.00
41264;BME280;26998;48.714;9.414;2022-09-27T03:57:10;97057.44;;;9.39;100.00
41264;BME280;26998;48.714;9.414;2022-09-27T03:59:37;97054.91;;;9.44;100.00
41264;BME280;26998;48.714;9.414;2022-09-27T04:02:03;97052.78;;;9.46;100.00
41264;BME280;26998;48.714;9.414;2022-09-27T04:04:30;97059.66;;;9.42;100.00
41264;BME280;26998;48.714;9.414;2022-09-27T04:06:56;97056.16;;;9.41;100.00
41264;BME280;26998;48.714;9.414;2022-09-27T04:09:23;97059.06;;;9.40;100.00
41264;BME280;26998;48.714;9.414;2022-09-27T04:11:49;97060.13;;;9.39;100.00
41264;BME280;26998;48.714;9.414;2022-09-27T04:14:16;97061.25;;;9.43;100.00
41264;BME280;26998;48.714;9.414;2022-09-27T04:16:42;97056.50;;;9.45;100.00
41264;BME280;26998;48.714;9.414;2022-09-27T04:19:08;97057.56;;;9.44;100.00
41264;BME280;26998;48.714;9.414;2022-09-27T04:21:35;97055.69;;;9.44;100.00
41264;BME280;26998;48.714;9.414;2022-09-27T04:24:02;97059.75;;;9.47;100.00
41264;BME280;26998;48.714;9.414;2022-09-27T04:26:28;97064.38;;;9.40;100.00
41264;BME280;26998;48.714;9.414;2022-09-27T04:28:55;97063.72;;;9.33;100.00
41264;BME280;26998;48.714;9.414;2022-09-27T04:31:21;97077.03;;;9.33;100.00
41264;BME280;26998;48.714;9.414;2022-09-27T04:33:48;97073.69;;;9.25;100.00
41264;BME280;26998;48.714;9.414;2022-09-27T04:36:17;97080.63;;;9.27;100.00
41264;BME280;26998;48.714;9.414;2022-09-27T04:38:44;97080.19;;;9.30;100.00
41264;BME280;26998;48.714;9.414;2022-09-27T04:41:10;97079.94;;;9.31;100.00
41264;BME280;26998;48.714;9.414;2022-09-27T04:43:37;97082.13;;;9.34;100.00
41264;BME280;26998;48.714;9.414;2022-09-27T04:46:04;97091.97;;;9.34;100.00
41264;BME280;26998;48.714;9.414;2022-09-27T04:48:30;97088.75;;;9.32;100.00
41264;BME280;26998;48.714;9.414;2022-09-27T04:50:58;97093.16;;;9.38;100.00
41264;BME280;26998;48.714;9.414;2022-09-27T04:53:25;97103.44;;;9.34;100.00
41264;BME280;26998;48.714;9.414;2022-09-27T04:55:52;97108.44;;;9.31;100.00
41264;BME280;26998;48.714;9.414;2022-09-27T04:58:23;97107.97;;;9.34;100.00
41264;BME280;26998;48.714;9.414;2022-09-27T05:00:50;97109.03;;;9.33;100.00
41264;BME280;26998;48.714;9.414;2022-09-27T05:03:17;97113.22;;;9.29;100.00
41264;BME280;26998;48.714;9.414;2022-09-27T05:05:44;97111.69;;;9.33;100.00
41264;BME280;26998;48.714;9.414;2022-09-27T05:08:10;97109.97;;;9.27;100.00
41264;BME280;26998;48.714;9.414;2022-09-27T05:10:37;97115.16;;;9.21;100.00
41264;BME280;26998;48.714;9.414;2022-09-27T05:13:03;97114.69;;;9.24;100.00
41264;BME280;26998;48.714;9.414;2022-09-27T05:15:29;97114.34;;;9.09;100.00
41264;BME280;26998;48.714;9.414;2022-09-27T05:17:56;97125.00;;;9.09;100.00
41264;BME280;26998;48.714;9.414;2022-09-27T05:20:23;97126.66;;;9.10;100.00
41264;BME280;26998;48.714;9.414;2022-09-27T05:22:50;97122.34;;;9.09;100.00
41264;BME280;26998;48.714;9.414;2022-09-27T05:25:17;97129.53;;;9.09;100.00
41264;BME280;26998;48.714;9.414;2022-09-27T05:27:44;97134.31;;;9.07;100.00
41264;BME280;26998;48.714;9.414;2022-09-27T05:30:10;97133.72;;;9.05;100.00
41264;BME280;26998;48.714;9.414;2022-09-27T05:32:44;97140.78;;;9.11;100.00
41264;BME280;26998;48.714;9.414;2022-09-27T05:35:11;97141.00;;;9.09;100.00
41264;BME280;26998;48.714;9.414;2022-09-27T05:37:37;97146.59;;;9.19;100.00
41264;BME280;26998;48.714;9.414;2022-09-27T05:40:04;97152.47;;;9.21;100.00
41264;BME280;26998;48.714;9.414;2022-09-27T05:42:52;97155.16;;;9.21;100.00
41264;BME280;26998;48.714;9.414;2022-09-27T05:45:19;97143.22;;;9.24;100.00
41264;BME280;26998;48.714;9.414;2022-09-27T05:47:56;97155.75;;;9.23;100.00
41264;BME280;26998;48.714;9.414;2022-09-27T05:50:26;97155.75;;;9.23;100.00
41264;BME280;26998;48.714;9.414;2022-09-27T05:52:53;97157.81;;;9.21;100.00
41264;BME280;26998;48.714;9.414;2022-09-27T05:55:20;97158.28;;;9.18;100.00
41264;BME280;26998;48.714;9.414;2022-09-27T05:57:54;97169.53;;;9.20;100.00
41264;BME280;26998;48.714;9.414;2022-09-27T06:00:23;97175.44;;;9.22;100.00
41264;BME280;26998;48.714;9.414;2022-09-27T06:02:54;97180.91;;;9.16;100.00
41264;BME280;26998;48.714;9.414;2022-09-27T06:05:22;97187.59;;;9.18;100.00
41264;BME280;26998;48.714;9.414;2022-09-27T06:07:48;97189.94;;;9.27;100.00
41264;BME280;26998;48.714;9.414;2022-09-27T06:10:16;97189.81;;;9.21;100.00
41264;BME280;26998;48.714;9.414;2022-09-27T06:12:43;97198.25;;;9.18;100.00
41264;BME280;26998;48.714;9.414;2022-09-27T06:15:09;97192.22;;;9.11;100.00
41264;BME280;26998;48.714;9.414;2022-09-27T06:17:36;97204.50;;;9.12;100.00
41264;BME280;26998;48.714;9.414;2022-09-27T06:20:02;97200.13;;;9.18;100.00
41264;BME280;26998;48.714;9.414;2022-09-27T06:22:29;97211.59;;;9.18;100.00
41264;BME280;26998;48.714;9.414;2022-09-27T06:24:56;97198.59;;;9.22;100.00
41264;BME280;26998;48.714;9.414;2022-09-27T06:27:22;97206.59;;;9.22;100.00
41264;BME280;26998;48.714;9.414;2022-09-27T06:29:49;97203.41;;;9.32;100.00
41264;BME280;26998;48.714;9.414;2022-09-27T06:32:15;97203.59;;;9.30;100.00
41264;BME280;26998;48.714;9.414;2022-09-27T06:34:42;97216.34;;;9.28;100.00
41264;BME280;26998;48.714;9.414;2022-09-27T06:37:08;97210.81;;;9.30;100.00
41264;BME280;26998;48.714;9.414;2022-09-27T06:39:34;97210.56;;;9.19;100.00
41264;BME280;26998;48.714;9.414;2022-09-27T06:42:01;97222.13;;;9.25;100.00
41264;BME280;26998;48.714;9.414;2022-09-27T06:44:27;97224.81;;;9.37;100.00
41264;BME280;26998;48.714;9.414;2022-09-27T06:46:54;97222.75;;;9.39;100.00
41264;BME280;26998;48.714;9.414;2022-09-27T06:49:21;97220.44;;;9.42;100.00
41264;BME280;26998;48.714;9.414;2022-09-27T06:51:47;97227.50;;;9.37;100.00
41264;BME280;26998;48.714;9.414;2022-09-27T06:54:14;97222.97;;;9.37;100.00
41264;BME280;26998;48.714;9.414;2022-09-27T06:56:41;97227.84;;;9.40;100.00
41264;BME280;26998;48.714;9.414;2022-09-27T06:59:07;97232.50;;;9.45;100.00
41264;BME280;26998;48.714;9.414;2022-09-27T07:01:33;97242.00;;;9.41;100.00
41264;BME280;26998;48.714;9.414;2022-09-27T07:04:00;97242.94;;;9.35;100.00
41264;BME280;26998;48.714;9.414;2022-09-27T07:06:26;97249.63;;;9.37;100.00
41264;BME280;26998;48.714;9.414;2022-09-27T07:08:53;97249.75;;;9.42;100.00
41264;BME280;26998;48.714;9.414;2022-09-27T07:11:21;97248.50;;;9.45;100.00
41264;BME280;26998;48.714;9.414;2022-09-27T07:13:48;97247.13;;;9.54;100.00
41264;BME280;26998;48.714;9.414;2022-09-27T07:16:15;97253.75;;;9.63;100.00
41264;BME280;26998;48.714;9.414;2022-09-27T07:18:41;97256.28;;;9.70;100.00
41264;BME280;26998;48.714;9.414;2022-09-27T07:21:08;97261.97;;;9.74;100.00
41264;BME280;26998;48.714;9.414;2022-09-27T07:23:36;97272.06;;;9.83;100.00
41264;BME280;26998;48.714;9.414;2022-09-27T07:26:03;97267.19;;;9.92;100.00
41264;BME280;26998;48.714;9.414;2022-09-27T07:28:30;97275.19;;;9.92;100.00
41264;BME280;26998;48.714;9.414;2022-09-27T07:30:57;97268.72;;;9.88;100.00
41264;BME280;26998;48.714;9.414;2022-09-27T07:33:24;97262.66;;;9.92;100.00
41264;BME280;26998;48.714;9.414;2022-09-27T07:35:51;97275.78;;;9.82;100.00
41264;BME280;26998;48.714;9.414;2022-09-27T07:38:18;97278.44;;;9.70;100.00
41264;BME280;26998;48.714;9.414;2022-09-27T07:40:44;97274.84;;;9.77;100.00
41264;BME280;26998;48.714;9.414;2022-09-27T07:43:11;97282.38;;;9.68;100.00
41264;BME280;26998;48.714;9.414;2022-09-27T07:45:37;97291.09;;;9.87;100.00
41264;BME280;26998;48.714;9.414;2022-09-27T07:48:07;97293.84;;;9.68;100.00
41264;BME280;26998;48.714;9.414;2022-09-27T07:50:34;97293.97;;;9.74;100.00
41264;BME280;26998;48.714;9.414;2022-09-27T07:53:00;97288.50;;;9.68;100.00
41264;BME280;26998;48.714;9.414;2022-09-27T07:55:27;97291.78;;;9.82;100.00
41264;BME280;26998;48.714;9.414;2022-09-27T07:58:08;97292.00;;;9.81;100.00
41264;BME280;26998;48.714;9.414;2022-09-27T08:00:35;97295.41;;;9.88;100.00
41264;BME280;26998;48.714;9.414;2022-09-27T08:03:06;97302.94;;;9.91;100.00
41264;BME280;26998;48.714;9.414;2022-09-27T08:05:34;97308.03;;;10.04;100.00
41264;BME280;26998;48.714;9.414;2022-09-27T08:08:02;97308.84;;;9.93;100.00
41264;BME280;26998;48.714;9.414;2022-09-27T08:10:30;97301.53;;;10.24;100.00
41264;BME280;26998;48.714;9.414;2022-09-27T08:12:58;97312.44;;;10.46;100.00
41264;BME280;26998;48.714;9.414;2022-09-27T08:15:27;97306.63;;;10.49;100.00
41264;BME280;26998;48.714;9.414;2022-09-27T08:17:54;97307.41;;;10.61;100.00
41264;BME280;26998;48.714;9.414;2022-09-27T08:20:20;97305.69;;;10.55;100.00
41264;BME280;26998;48.714;9.414;2022-09-27T08:22:47;97310.84;;;10.85;100.00
41264;BME280;26998;48.714;9.414;2022-09-27T08:25:14;97313.06;;;10.76;100.00
41264;BME280;26998;48.714;9.414;2022-09-27T08:27:41;97317.88;;;10.62;100.00
41264;BME280;26998;48.714;9.414;2022-09-27T08:30:08;97321.72;;;10.55;100.00
41264;BME280;26998;48.714;9.414;2022-09-27T08:32:34;97329.75;;;10.43;100.00
41264;BME280;26998;48.714;9.414;2022-09-27T08:35:01;97329.97;;;10.53;100.00
41264;BME280;26998;48.714;9.414;2022-09-27T08:37:28;97325.91;;;10.62;100.00
41264;BME280;26998;48.714;9.414;2022-09-27T08:39:54;97339.34;;;10.56;100.00
41264;BME280;26998;48.714;9.414;2022-09-27T08:42:34;97330.66;;;10.60;100.00
41264;BME280;26998;48.714;9.414;2022-09-27T08:45:15;97341.00;;;10.57;100.00
41264;BME280;26998;48.714;9.414;2022-09-27T08:47:51;97350.03;;;10.68;100.00
41264;BME280;26998;48.714;9.414;2022-09-27T08:50:30;97337.06;;;10.59;100.00
41264;BME280;26998;48.714;9.414;2022-09-27T08:55:42;97328.88;;;10.78;100.00
41264;BME280;26998;48.714;9.414;2022-09-27T09:00:58;97327.31;;;10.53;100.00
41264;BME280;26998;48.714;9.414;2022-09-27T09:03:27;97332.75;;;10.58;100.00
41264;BME280;26998;48.714;9.414;2022-09-27T09:06:10;97336.22;;;10.59;100.00
41264;BME280;26998;48.714;9.414;2022-09-27T09:08:50;97366.91;;;10.56;100.00
41264;BME280;26998;48.714;9.414;2022-09-27T09:11:40;97347.94;;;9.87;100.00
41264;BME280;26998;48.714;9.414;2022-09-27T09:14:27;97361.16;;;9.40;100.00
41264;BME280;26998;48.714;9.414;2022-09-27T09:17:14;97367.44;;;9.46;100.00
41264;BME280;26998;48.714;9.414;2022-09-27T09:22:53;97359.78;;;10.15;100.00
41264;BME280;26998;48.714;9.414;2022-09-27T09:25:39;97356.91;;;10.63;100.00
41264;BME280;26998;48.714;9.414;2022-09-27T09:31:11;97353.81;;;10.83;100.00
41264;BME280;26998;48.714;9.414;2022-09-27T09:33:45;97345.13;;;11.91;100.00
41264;BME280;26998;48.714;9.414;2022-09-27T09:36:24;97345.00;;;12.36;100.00
41264;BME280;26998;48.714;9.414;2022-09-27T09:38:56;97343.41;;;12.18;97.31
41264;BME280;26998;48.714;9.414;2022-09-27T09:41:31;97347.00;;;12.46;100.00
41264;BME280;26998;48.714;9.414;2022-09-27T09:44:30;97344.44;;;12.95;95.94
41264;BME280;26998;48.714;9.414;2022-09-27T09:47:01;97351.97;;;12.76;92.98
41264;BME280;26998;48.714;9.414;2022-09-27T09:49:32;97349.69;;;12.46;95.97
41264;BME280;26998;48.714;9.414;2022-09-27T09:52:05;97350.44;;;13.02;91.27
41264;BME280;26998;48.714;9.414;2022-09-27T09:54:42;97341.19;;;13.15;91.71
41264;BME280;26998;48.714;9.414;2022-09-27T09:57:24;97346.84;;;13.18;85.21
41264;BME280;26998;48.714;9.414;2022-09-27T09:59:58;97333.13;;;13.96;85.10
41264;BME280;26998;48.714;9.414;2022-09-27T10:02:41;97344.09;;;13.35;85.30
41264;BME280;26998;48.714;9.414;2022-09-27T10:05:13;97321.84;;;13.67;82.53
41264;BME280;26998;48.714;9.414;2022-09-27T10:07:40;97347.34;;;13.37;80.33
41264;BME280;26998;48.714;9.414;2022-09-27T10:10:12;97337.13;;;13.61;81.36
41264;BME280;26998;48.714;9.414;2022-09-27T10:12:39;97322.16;;;14.08;81.40
41264;BME280;26998;48.714;9.414;2022-09-27T10:15:05;97319.91;;;13.30;83.91
41264;BME280;26998;48.714;9.414;2022-09-27T10:17:41;97319.09;;;13.57;83.55
41264;BME280;26998;48.714;9.414;2022-09-27T10:20:23;97317.69;;;14.19;76.19
41264;BME280;26998;48.714;9.414;2022-09-27T10:22:53;97325.25;;;14.64;69.52
41264;BME280;26998;48.714;9.414;2022-09-27T10:25:20;97323.47;;;14.90;68.10
41264;BME280;26998;48.714;9.414;2022-09-27T10:27:49;97317.72;;;14.66;70.73
41264;BME280;26998;48.714;9.414;2022-09-27T10:30:21;97317.69;;;13.81;68.07
41264;BME280;26998;48.714;9.414;2022-09-27T10:32:50;97314.50;;;14.69;66.71
41264;BME280;26998;48.714;9.414;2022-09-27T10:35:37;97312.59;;;13.85;67.00
41264;BME280;26998;48.714;9.414;2022-09-27T10:38:25;97320.97;;;13.89;66.96
41264;BME280;26998;48.714;9.414;2022-09-27T10:40:53;97314.69;;;13.24;69.66
41264;BME280;26998;48.714;9.414;2022-09-27T10:43:31;97310.06;;;12.92;71.42
41264;BME280;26998;48.714;9.414;2022-09-27T10:46:04;97314.41;;;13.20;74.54
41264;BME280;26998;48.714;9.414;2022-09-27T10:48:31;97310.25;;;12.85;76.28
41264;BME280;26998;48.714;9.414;2022-09-27T10:51:00;97306.50;;;12.86;81.62
41264;BME280;26998;48.714;9.414;2022-09-27T10:53:28;97312.72;;;12.65;79.89
41264;BME280;26998;48.714;9.414;2022-09-27T10:55:57;97311.25;;;12.57;78.25
41264;BME280;26998;48.714;9.414;2022-09-27T10:58:32;97314.19;;;12.78;86.35
41264;BME280;26998;48.714;9.414;2022-09-27T11:01:02;97304.97;;;12.90;87.79
41264;BME280;26998;48.714;9.414;2022-09-27T11:03:32;97311.31;;;12.84;82.32
41264;BME280;26998;48.714;9.414;2022-09-27T11:05:59;97309.75;;;12.88;81.49
41264;BME280;26998;48.714;9.414;2022-09-27T11:08:31;97302.31;;;12.95;84.21
41264;BME280;26998;48.714;9.414;2022-09-27T11:13:40;97302.97;;;13.03;81.56
41264;BME280;26998;48.714;9.414;2022-09-27T11:30:42;97288.78;;;13.07;80.38
41264;BME280;26998;48.714;9.414;2022-09-27T11:36:11;97277.41;;;13.22;75.23
41264;BME280;26998;48.714;9.414;2022-09-27T11:39:03;97257.13;;;13.31;81.46
41264;BME280;26998;48.714;9.414;2022-09-27T11:44:30;97262.91;;;13.23;75.83
41264;BME280;26998;48.714;9.414;2022-09-27T11:50:19;97247.72;;;13.29;77.22
41264;BME280;26998;48.714;9.414;2022-09-27T12:06:40;97257.59;;;12.52;77.74
41264;BME280;26998;48.714;9.414;2022-09-27T12:09:19;97252.66;;;12.66;77.21
41264;BME280;26998;48.714;9.414;2022-09-27T12:11:56;97246.94;;;12.57;76.40
41264;BME280;26998;48.714;9.414;2022-09-27T12:14:43;97246.38;;;12.33;75.60
41264;BME280;26998;48.714;9.414;2022-09-27T12:17:18;97249.13;;;12.38;80.37
41264;BME280;26998;48.714;9.414;2022-09-27T12:19:48;97241.00;;;12.11;78.33
41264;BME280;26998;48.714;9.414;2022-09-27T12:22:25;97242.50;;;12.24;80.31
41264;BME280;26998;48.714;9.414;2022-09-27T12:25:16;97245.84;;;12.14;79.78
41264;BME280;26998;48.714;9.414;2022-09-27T12:27:48;97248.34;;;12.21;83.10
41264;BME280;26998;48.714;9.414;2022-09-27T12:30:17;97268.56;;;12.12;92.83
41264;BME280;26998;48.714;9.414;2022-09-27T12:35:32;97274.03;;;11.66;100.00
41264;BME280;26998;48.714;9.414;2022-09-27T12:38:54;97270.38;;;11.55;100.00
41264;BME280;26998;48.714;9.414;2022-09-27T12:41:16;97279.78;;;11.58;100.00
41264;BME280;26998;48.714;9.414;2022-09-27T12:43:47;97281.00;;;11.50;100.00
41264;BME280;26998;48.714;9.414;2022-09-27T12:52:14;97277.84;;;11.53;100.00
41264;BME280;26998;48.714;9.414;2022-09-27T12:55:24;97269.47;;;11.33;100.00
41264;BME280;26998;48.714;9.414;2022-09-27T12:58:08;97273.59;;;11.24;100.00
41264;BME280;26998;48.714;9.414;2022-09-27T13:00:45;97270.75;;;11.14;100.00
41264;BME280;26998;48.714;9.414;2022-09-27T13:12:01;97267.28;;;10.84;100.00
41264;BME280;26998;48.714;9.414;2022-09-27T13:14:32;97262.13;;;11.12;100.00
41264;BME280;26998;48.714;9.414;2022-09-27T13:17:00;97273.94;;;11.61;100.00
41264;BME280;26998;48.714;9.414;2022-09-27T13:19:42;97285.06;;;11.70;100.00
41264;BME280;26998;48.714;9.414;2022-09-27T13:22:37;97271.59;;;11.82;100.00
41264;BME280;26998;48.714;9.414;2022-09-27T13:31:05;97265.84;;;11.90;100.00
41264;BME280;26998;48.714;9.414;2022-09-27T13:33:46;97252.47;;;11.73;100.00
41264;BME280;26998;48.714;9.414;2022-09-27T13:38:58;97252.63;;;11.66;100.00
41264;BME280;26998;48.714;9.414;2022-09-27T13:44:25;97255.16;;;11.56;100.00
41264;BME280;26998;48.714;9.414;2022-09-27T13:52:42;97246.44;;;11.15;100.00
41264;BME280;26998;48.714;9.414;2022-09-27T14:00:48;97251.75;;;11.61;100.00
41264;BME280;26998;48.714;9.414;2022-09-27T14:03:21;97244.38;;;11.85;100.00
41264;BME280;26998;48.714;9.414;2022-09-27T14:06:02;97239.84;;;11.85;100.00
41264;BME280;26998;48.714;9.414;2022-09-27T14:08:37;97239.28;;;12.05;100.00
41264;BME280;26998;48.714;9.414;2022-09-27T14:11:22;97236.91;;;12.25;100.00
41264;BME280;26998;48.714;9.414;2022-09-27T14:13:50;97220.22;;;12.40;100.00
41264;BME280;26998;48.714;9.414;2022-09-27T14:16:17;97220.06;;;12.52;100.00
41264;BME280;26998;48.714;9.414;2022-09-27T14:18:47;97218.53;;;12.34;100.00
41264;BME280;26998;48.714;9.414;2022-09-27T14:23:44;97225.84;;;12.00;99.88
41264;BME280;26998;48.714;9.414;2022-09-27T14:26:21;97221.41;;;11.72;97.25
41264;BME280;26998;48.714;9.414;2022-09-27T14:28:48;97215.09;;;11.78;99.71
41264;BME280;26998;48.714;9.414;2022-09-27T14:31:20;97225.88;;;11.66;99.93
41264;BME280;26998;48.714;9.414;2022-09-27T14:33:48;97212.19;;;11.63;100.00
41264;BME280;26998;48.714;9.414;2022-09-27T14:36:25;97221.09;;;11.68;97.64
41264;BME280;26998;48.714;9.414;2022-09-27T14:38:52;97234.88;;;11.60;97.02
41264;BME280;26998;48.714;9.414;2022-09-27T14:41:18;97243.00;;;11.65;96.79
41264;BME280;26998;48.714;9.414;2022-09-27T14:43:45;97236.88;;;11.36;96.12
41264;BME280;26998;48.714;9.414;2022-09-27T14:46:25;97237.22;;;11.23;94.88
41264;BME280;26998;48.714;9.414;2022-09-27T14:48:52;97240.59;;;11.18;95.86
41264;BME280;26998;48.714;9.414;2022-09-27T14:51:25;97242.88;;;11.09;97.67
41264;BME280;26998;48.714;9.414;2022-09-27T14:53:54;97262.22;;;11.00;99.28
41264;BME280;26998;48.714;9.414;2022-09-27T14:56:24;97255.63;;;10.91;100.00
41264;BME280;26998;48.714;9.414;2022-09-27T14:58:55;97266.06;;;10.92;100.00
41264;BME280;26998;48.714;9.414;2022-09-27T15:01:23;97261.16;;;11.01;100.00
41264;BME280;26998;48.714;9.414;2022-09-27T15:03:49;97262.66;;;11.25;100.00
41264;BME280;26998;48.714;9.414;2022-09-27T15:06:16;97260.00;;;11.42;100.00
41264;BME280;26998;48.714;9.414;2022-09-27T15:08:43;97258.88;;;11.38;100.00
41264;BME280;26998;48.714;9.414;2022-09-27T15:11:10;97263.25;;;11.44;100.00
41264;BME280;26998;48.714;9.414;2022-09-27T15:13:37;97264.75;;;11.23;100.00
41264;BME280;26998;48.714;9.414;2022-09-27T15:16:07;97257.66;;;11.29;100.00
41264;BME280;26998;48.714;9.414;2022-09-27T15:18:41;97254.47;;;11.49;100.00